Time;durP1;ratioP1;P1;durP2;ratioP2;P2;SDS_P1;SDS_P2;PMS_P1;PMS_P2;Temp;Humidity;BMP_temperature;BMP_pressure;BME280_temperature;BME280_humidity;BME280_pressure;Samples;Min_cycle;Max_cycle;Signal;HPM_P1;HPM_P2
2022/06/02 00:00:05;;;;;;;7.40;6.15;;;;;;;;;;6323893;28;20041;-68
2022/06/02 00:03:20;;;;;;;7.50;5.93;;;;;;;;;;6327543;28;20319;-67
2022/06/02 00:06:30;;;;;;;5.95;5.35;;;;;;;;;;6323252;28;20048;-67
2022/06/02 00:09:44;;;;;;;6.00;5.40;;;;;;;;;;6323748;28;20293;-67
2022/06/02 00:12:49;;;;;;;8.85;6.15;;;;;;;;;;6325705;28;20142;-68
2022/06/02 00:15:54;;;;;;;11.40;5.80;;;;;;;;;;6320372;28;20052;-67
2022/06/02 00:19:01;;;;;;;7.53;5.82;;;;;;;;;;6322143;28;20043;-66
2022/06/02 00:22:09;;;;;;;10.07;6.25;;;;;;;;;;6327684;28;20048;-68
2022/06/02 00:25:14;;;;;;;8.23;5.90;;;;;;;;;;6325951;28;20060;-68
2022/06/02 00:28:24;;;;;;;8.50;6.43;;;;;;;;;;6327559;28;20228;-68
2022/06/02 00:31:32;;;;;;;7.95;6.43;;;;;;;;;;6323918;28;20048;-71
2022/06/02 00:34:40;;;;;;;10.23;7.28;;;;;;;;;;6323334;28;20389;-71
2022/06/02 00:37:46;;;;;;;8.05;6.70;;;;;;;;;;6321399;28;20056;-69
2022/06/02 00:40:48;;;;;;;8.60;7.30;;;;;;;;;;6325097;28;20105;-69
2022/06/02 00:44:05;;;;;;;8.93;7.70;;;;;;;;;;6320577;28;20053;-69
2022/06/02 00:47:28;;;;;;;12.18;7.82;;;;;;;;;;6328415;28;20078;-69
2022/06/02 00:50:46;;;;;;;10.90;7.90;;;;;;;;;;6325608;28;20093;-69
2022/06/02 00:57:31;;;;;;;9.40;7.70;;;;;;;;;;6322983;28;20056;-68
2022/06/02 01:00:38;;;;;;;9.43;7.50;;;;;;;;;;6325154;28;20330;-68
2022/06/02 01:03:43;;;;;;;8.57;7.28;;;;;;;;;;6318007;28;20063;-68
2022/06/02 01:07:05;;;;;;;9.52;7.57;;;;;;;;;;6323247;28;20271;-70
2022/06/02 01:10:33;;;;;;;8.05;7.00;;;;;;;;;;6321949;28;20040;-70
2022/06/02 01:13:48;;;;;;;8.98;7.40;;;;;;;;;;6295038;28;20055;-70
2022/06/02 01:16:55;;;;;;;8.25;7.38;;;;;;;;;;6321481;28;20063;-70
2022/06/02 01:20:08;;;;;;;8.60;7.07;;;;;;;;;;6322395;28;20054;-69
2022/06/02 01:23:45;;;;;;;7.47;6.72;;;;;;;;;;6321572;28;20043;-69
2022/06/02 01:27:04;;;;;;;10.05;7.40;;;;;;;;;;6324233;28;20133;-68
2022/06/02 01:30:45;;;;;;;8.02;7.07;;;;;;;;;;6320817;28;20056;-68
2022/06/02 01:33:53;;;;;;;8.43;6.95;;;;;;;;;;6324361;28;20115;-68
2022/06/02 01:37:04;;;;;;;7.90;6.50;;;;;;;;;;6321591;27;20098;-68
2022/06/02 01:40:14;;;;;;;8.05;6.97;;;;;;;;;;6324331;28;20062;-68
2022/06/02 01:43:18;;;;;;;11.95;7.45;;;;;;;;;;6326737;28;20047;-68
2022/06/02 01:46:43;;;;;;;9.27;7.10;;;;;;;;;;6323789;28;20074;-68
2022/06/02 01:49:58;;;;;;;11.00;6.93;;;;;;;;;;6321039;28;20269;-66
2022/06/02 01:53:08;;;;;;;9.70;7.13;;;;;;;;;;6324965;28;20058;-68
2022/06/02 01:56:19;;;;;;;10.00;8.10;;;;;;;;;;6321850;28;20048;-68
2022/06/02 01:59:39;;;;;;;9.15;7.53;;;;;;;;;;6319291;28;20059;-68
2022/06/02 02:02:54;;;;;;;11.13;7.22;;;;;;;;;;6327557;28;20208;-68
2022/06/02 02:06:05;;;;;;;11.75;7.30;;;;;;;;;;6317055;28;20063;-69
2022/06/02 02:09:12;;;;;;;8.80;7.90;;;;;;;;;;6323101;28;20055;-70
2022/06/02 02:12:20;;;;;;;9.02;7.70;;;;;;;;;;6321775;28;20308;-69
2022/06/02 02:15:28;;;;;;;9.52;7.25;;;;;;;;;;6318207;28;20056;-68
2022/06/02 02:18:45;;;;;;;8.15;7.38;;;;;;;;;;6322756;28;20090;-69
2022/06/02 02:21:53;;;;;;;8.23;6.68;;;;;;;;;;6320152;28;20120;-69
2022/06/02 02:25:06;;;;;;;9.57;7.03;;;;;;;;;;6320639;28;20109;-69
2022/06/02 02:28:15;;;;;;;8.50;6.47;;;;;;;;;;6318585;28;20086;-69
2022/06/02 02:31:26;;;;;;;8.75;7.00;;;;;;;;;;6322441;28;20055;-69
2022/06/02 02:34:38;;;;;;;7.13;6.43;;;;;;;;;;6322095;28;20104;-69
2022/06/02 02:37:46;;;;;;;9.75;7.40;;;;;;;;;;6320873;28;20056;-70
2022/06/02 02:40:53;;;;;;;8.35;6.60;;;;;;;;;;6317509;28;20056;-69
2022/06/02 02:44:01;;;;;;;7.22;6.43;;;;;;;;;;6320263;28;20274;-68
2022/06/02 02:47:09;;;;;;;8.63;6.57;;;;;;;;;;6319337;28;20059;-69
2022/06/02 02:50:19;;;;;;;9.57;7.35;;;;;;;;;;6323984;27;20036;-70
2022/06/02 02:53:22;;;;;;;7.32;6.63;;;;;;;;;;6319340;28;20051;-69
2022/06/02 02:56:30;;;;;;;7.20;6.55;;;;;;;;;;6325673;28;20102;-69
2022/06/02 02:59:41;;;;;;;10.38;6.88;;;;;;;;;;6321528;28;20374;-69
2022/06/02 03:02:48;;;;;;;7.60;6.90;;;;;;;;;;6322169;28;20059;-69
2022/06/02 03:06:02;;;;;;;7.72;6.93;;;;;;;;;;6324622;28;20056;-69
2022/06/02 03:09:08;;;;;;;8.40;7.00;;;;;;;;;;6327175;28;20052;-69
2022/06/02 03:12:15;;;;;;;8.20;7.18;;;;;;;;;;6324051;28;20052;-68
2022/06/02 03:15:21;;;;;;;7.20;6.45;;;;;;;;;;6326144;27;20058;-69
2022/06/02 03:18:31;;;;;;;8.05;7.25;;;;;;;;;;6326855;28;20057;-69
2022/06/02 03:21:37;;;;;;;8.93;7.25;;;;;;;;;;6326627;28;20351;-70
2022/06/02 03:24:52;;;;;;;11.20;7.68;;;;;;;;;;6330755;28;20040;-69
2022/06/02 03:28:00;;;;;;;8.70;7.80;;;;;;;;;;6325222;28;20276;-69
2022/06/02 03:31:07;;;;;;;8.73;7.55;;;;;;;;;;6324984;28;20131;-70
2022/06/02 03:34:16;;;;;;;10.35;7.70;;;;;;;;;;6322730;27;20381;-70
2022/06/02 03:37:29;;;;;;;10.15;7.45;;;;;;;;;;6326391;28;20048;-70
2022/06/02 03:40:39;;;;;;;8.27;7.47;;;;;;;;;;6325381;28;20063;-70
2022/06/02 03:43:53;;;;;;;10.05;8.02;;;;;;;;;;6323515;28;20050;-68
2022/06/02 03:47:17;;;;;;;8.52;7.63;;;;;;;;;;6323873;28;20039;-69
2022/06/02 03:50:45;;;;;;;9.07;7.85;;;;;;;;;;6320407;28;20047;-69
2022/06/02 03:54:09;;;;;;;9.65;8.27;;;;;;;;;;6322756;28;20066;-69
2022/06/02 03:57:15;;;;;;;;;;;;;;;;;;6324471;28;20062;-69
2022/06/02 04:00:22;;;;;;;10.45;8.23;;;;;;;;;;6324648;28;19960;-70
2022/06/02 04:03:43;;;;;;;9.60;7.80;;;;;;;;;;6326290;27;20074;-69
2022/06/02 04:07:00;;;;;;;10.40;8.23;;;;;;;;;;6326525;28;20043;-69
2022/06/02 04:10:14;;;;;;;8.50;7.70;;;;;;;;;;6324179;28;20059;-69
2022/06/02 04:13:38;;;;;;;10.15;8.45;;;;;;;;;;6322073;28;20089;-69
2022/06/02 04:16:46;;;;;;;;;;;;;;;;;;6327302;28;20048;-69
2022/06/02 04:23:40;;;;;;;9.43;8.38;;;;;;;;;;6324131;28;20044;-67
2022/06/02 04:26:52;;;;;;;10.73;8.13;;;;;;;;;;6321682;28;20098;-69
2022/06/02 04:30:05;;;;;;;13.13;8.55;;;;;;;;;;6324055;28;20056;-69
2022/06/02 04:33:13;;;;;;;10.65;9.38;;;;;;;;;;6324593;28;20044;-69
2022/06/02 04:36:20;;;;;;;10.90;8.63;;;;;;;;;;6321469;28;20322;-68
2022/06/02 04:39:27;;;;;;;11.90;8.88;;;;;;;;;;6322246;28;20059;-69
2022/06/02 04:42:35;;;;;;;11.20;8.70;;;;;;;;;;6324009;28;20283;-69
2022/06/02 04:45:45;;;;;;;9.68;8.68;;;;;;;;;;6323232;28;20040;-69
2022/06/02 04:48:53;;;;;;;13.73;9.68;;;;;;;;;;6322227;28;21098;-69
2022/06/02 04:52:01;;;;;;;13.30;9.43;;;;;;;;;;6323664;28;20129;-68
2022/06/02 04:55:11;;;;;;;12.35;9.18;;;;;;;;;;6324711;28;20049;-69
2022/06/02 04:58:18;;;;;;;9.95;8.95;;;;;;;;;;6324069;28;20048;-69
2022/06/02 05:01:30;;;;;;;10.18;8.40;;;;;;;;;;6322819;28;20101;-68
2022/06/02 05:04:40;;;;;;;12.82;9.05;;;;;;;;;;6322620;28;20353;-69
2022/06/02 05:08:00;;;;;;;8.32;7.53;;;;;;;;;;6324919;28;20129;-69
2022/06/02 05:11:12;;;;;;;9.73;8.82;;;;;;;;;;6320660;28;20106;-69
2022/06/02 05:14:24;;;;;;;11.05;9.43;;;;;;;;;;6316140;28;20032;-67
2022/06/02 05:17:48;;;;;;;9.27;8.27;;;;;;;;;;6299136;28;20060;-68
2022/06/02 05:21:09;;;;;;;10.57;8.50;;;;;;;;;;6293997;28;20049;-68
2022/06/02 05:24:33;;;;;;;9.90;8.90;;;;;;;;;;6295855;28;20045;-68
2022/06/02 05:28:07;;;;;;;10.40;9.30;;;;;;;;;;6297244;28;20098;-68
2022/06/02 05:31:27;;;;;;;;;;;;;;;;;;6281582;28;20274;-68
2022/06/02 05:35:05;;;;;;;10.75;8.70;;;;;;;;;;6295175;28;19930;-69
2022/06/02 05:38:24;;;;;;;8.95;7.95;;;;;;;;;;6294233;28;20056;-70
2022/06/02 05:41:34;;;;;;;11.70;8.68;;;;;;;;;;6311458;28;20121;-69
2022/06/02 05:44:52;;;;;;;10.40;9.30;;;;;;;;;;6323344;28;20044;-70
2022/06/02 05:48:04;;;;;;;10.63;8.88;;;;;;;;;;6323807;28;20051;-68
2022/06/02 05:51:12;;;;;;;10.47;8.97;;;;;;;;;;6317075;28;20358;-69
2022/06/02 05:54:25;;;;;;;9.77;8.20;;;;;;;;;;6320800;28;20044;-68
2022/06/02 05:57:34;;;;;;;11.18;8.80;;;;;;;;;;6325775;28;20064;-68
2022/06/02 06:00:45;;;;;;;9.55;8.48;;;;;;;;;;6322709;28;20052;-68
2022/06/02 06:04:16;;;;;;;10.23;8.80;;;;;;;;;;6321197;28;20327;-69
2022/06/02 06:07:29;;;;;;;10.25;8.80;;;;;;;;;;6320717;28;20044;-69
2022/06/02 06:10:38;;;;;;;11.30;8.60;;;;;;;;;;6323946;28;20673;-70
2022/06/02 06:14:04;;;;;;;10.73;8.45;;;;;;;;;;6324112;28;20327;-70
2022/06/02 06:17:13;;;;;;;10.70;8.45;;;;;;;;;;6315270;28;20133;-70
2022/06/02 06:20:36;;;;;;;11.48;8.98;;;;;;;;;;6323472;28;20048;-69
2022/06/02 06:24:23;;;;;;;10.27;8.48;;;;;;;;;;6322525;28;20326;-70
2022/06/02 06:27:33;;;;;;;9.18;8.02;;;;;;;;;;6319836;28;20102;-70
2022/06/02 06:30:43;;;;;;;10.30;8.32;;;;;;;;;;6322772;28;20115;-70
2022/06/02 06:33:54;;;;;;;9.52;8.48;;;;;;;;;;6321265;28;20055;-72
2022/06/02 06:37:09;;;;;;;9.13;8.23;;;;;;;;;;6326015;28;20146;-70
2022/06/02 06:40:19;;;;;;;9.43;8.43;;;;;;;;;;6328909;28;20345;-70
2022/06/02 06:43:32;;;;;;;10.82;8.80;;;;;;;;;;6325290;28;20365;-71
2022/06/02 06:46:37;;;;;;;11.13;9.55;;;;;;;;;;6325860;28;20119;-70
2022/06/02 06:49:51;;;;;;;12.25;10.95;;;;;;;;;;6324054;28;20048;-71
2022/06/02 06:53:13;;;;;;;13.88;10.60;;;;;;;;;;6326275;28;20052;-70
2022/06/02 06:56:19;;;;;;;13.20;11.43;;;;;;;;;;6326782;28;20068;-70
2022/06/02 06:59:32;;;;;;;13.13;11.43;;;;;;;;;;6326433;27;20097;-71
2022/06/02 07:02:48;;;;;;;13.80;12.35;;;;;;;;;;6324546;28;20159;-71
2022/06/02 07:05:51;;;;;;;16.73;12.48;;;;;;;;;;6324428;28;20102;-72
2022/06/02 07:08:56;;;;;;;14.00;11.05;;;;;;;;;;6325268;28;20047;-71
2022/06/02 07:15:34;;;;;;;19.95;14.02;;;;;;;;;;6325923;28;20083;-70
2022/06/02 07:18:46;;;;;;;15.85;11.65;;;;;;;;;;6325062;28;20090;-71
2022/06/02 07:21:51;;;;;;;13.10;10.75;;;;;;;;;;6323455;28;20269;-71
2022/06/02 07:24:58;;;;;;;13.55;10.60;;;;;;;;;;6326436;28;20060;-71
2022/06/02 07:28:03;;;;;;;15.98;13.20;;;;;;;;;;6325515;28;20107;-70
2022/06/02 07:31:20;;;;;;;13.57;12.18;;;;;;;;;;6323657;28;20055;-71
2022/06/02 07:34:34;;;;;;;12.93;11.05;;;;;;;;;;6326958;28;20063;-71
2022/06/02 07:37:41;;;;;;;13.07;11.75;;;;;;;;;;6325203;28;20327;-71
2022/06/02 07:40:57;;;;;;;12.65;11.32;;;;;;;;;;6325559;28;20315;-70
2022/06/02 07:44:22;;;;;;;17.30;11.93;;;;;;;;;;6326501;28;20048;-71
2022/06/02 07:47:49;;;;;;;14.93;10.30;;;;;;;;;;6322351;28;20052;-71
2022/06/02 07:50:56;;;;;;;14.07;9.88;;;;;;;;;;6320532;28;20117;-71
2022/06/02 07:54:16;;;;;;;14.80;10.82;;;;;;;;;;6320789;28;20040;-71
2022/06/02 07:57:25;;;;;;;15.63;11.02;;;;;;;;;;6322768;28;20048;-71
2022/06/02 08:00:32;;;;;;;13.52;11.63;;;;;;;;;;6320813;27;20093;-71
2022/06/02 08:03:52;;;;;;;13.25;11.57;;;;;;;;;;6326086;28;22494;-71
2022/06/02 08:07:02;;;;;;;16.25;12.68;;;;;;;;;;6327535;28;20060;-70
2022/06/02 08:10:17;;;;;;;12.85;11.52;;;;;;;;;;6324479;28;20223;-70
2022/06/02 08:13:28;;;;;;;11.32;9.48;;;;;;;;;;6318802;28;20132;-72
2022/06/02 08:16:43;;;;;;;12.88;11.55;;;;;;;;;;6327990;28;20050;-70
2022/06/02 08:19:55;;;;;;;11.63;10.43;;;;;;;;;;6321534;28;20140;-68
2022/06/02 08:23:01;;;;;;;12.05;10.27;;;;;;;;;;6327516;28;20286;-68
2022/06/02 08:26:09;;;;;;;11.57;10.35;;;;;;;;;;6327077;28;20040;-68
2022/06/02 08:29:20;;;;;;;10.95;9.60;;;;;;;;;;6325253;28;20063;-68
2022/06/02 08:32:36;;;;;;;9.38;8.07;;;;;;;;;;6325096;28;20063;-68
2022/06/02 08:35:44;;;;;;;11.25;9.38;;;;;;;;;;6325541;28;20086;-68
2022/06/02 08:39:26;;;;;;;12.57;9.35;;;;;;;;;;6320601;28;20107;-69
2022/06/02 08:42:47;;;;;;;14.00;8.37;;;;;;;;;;6324374;28;20051;-68
2022/06/02 08:46:06;;;;;;;10.25;8.15;;;;;;;;;;6322505;28;20044;-67
2022/06/02 08:49:41;;;;;;;9.20;8.27;;;;;;;;;;6323367;28;20067;-69
2022/06/02 08:53:30;;;;;;;9.15;8.13;;;;;;;;;;6293162;28;20047;-69
2022/06/02 08:57:13;;;;;;;9.35;8.30;;;;;;;;;;6326357;28;20041;-69
2022/06/02 09:00:22;;;;;;;7.18;6.57;;;;;;;;;;6320727;28;20335;-69
2022/06/02 09:04:24;;;;;;;9.35;8.43;;;;;;;;;;6322123;28;20063;-69
2022/06/02 09:07:46;;;;;;;10.23;8.38;;;;;;;;;;6245225;28;20293;-69
2022/06/02 09:11:04;;;;;;;9.60;8.70;;;;;;;;;;6251757;28;20089;-69
2022/06/02 09:14:29;;;;;;;10.95;9.25;;;;;;;;;;6248863;28;20053;-69
2022/06/02 09:17:41;;;;;;;10.32;9.20;;;;;;;;;;6241419;28;20241;-69
2022/06/02 09:20:49;;;;;;;9.10;8.13;;;;;;;;;;6247326;28;20057;-68
2022/06/02 09:23:58;;;;;;;9.65;7.95;;;;;;;;;;6247324;28;20053;-69
2022/06/02 09:27:43;;;;;;;9.77;8.82;;;;;;;;;;6245777;28;20053;-69
2022/06/02 09:30:55;;;;;;;9.43;8.00;;;;;;;;;;6248719;28;20053;-69
2022/06/02 09:34:09;;;;;;;9.70;8.80;;;;;;;;;;6243571;28;20057;-69
2022/06/02 09:38:04;;;;;;;9.45;8.55;;;;;;;;;;6271044;28;20197;-69
2022/06/02 09:41:52;;;;;;;9.50;7.25;;;;;;;;;;6322424;28;20114;-69
2022/06/02 09:45:02;;;;;;;8.68;6.88;;;;;;;;;;6252179;28;20115;-69
2022/06/02 09:48:16;;;;;;;9.88;7.75;;;;;;;;;;6248856;28;20172;-69
2022/06/02 09:51:42;;;;;;;9.27;8.27;;;;;;;;;;6248041;28;20096;-70
2022/06/02 09:55:19;;;;;;;8.60;7.43;;;;;;;;;;6245806;28;20037;-69
2022/06/02 09:58:45;;;;;;;7.82;7.13;;;;;;;;;;6250362;28;20287;-69
2022/06/02 10:01:56;;;;;;;7.43;5.65;;;;;;;;;;6250275;28;20521;-69
2022/06/02 10:05:13;;;;;;;6.85;6.00;;;;;;;;;;6246960;28;20056;-69
2022/06/02 10:08:21;;;;;;;6.50;5.90;;;;;;;;;;6250067;28;20041;-68
2022/06/02 10:11:32;;;;;;;10.00;6.43;;;;;;;;;;6246243;28;20065;-70
2022/06/02 10:15:01;;;;;;;10.05;6.00;;;;;;;;;;6249368;28;20107;-70
2022/06/02 10:18:20;;;;;;;7.25;6.45;;;;;;;;;;6274457;28;20108;-68
2022/06/02 10:21:38;;;;;;;9.65;7.85;;;;;;;;;;6320823;28;20056;-68
2022/06/02 10:24:52;;;;;;;12.23;7.20;;;;;;;;;;6323960;28;20075;-69
2022/06/02 10:28:15;;;;;;;9.00;6.80;;;;;;;;;;6321352;28;20380;-67
2022/06/02 10:31:51;;;;;;;8.70;7.97;;;;;;;;;;6322886;28;20115;-67
2022/06/02 10:35:26;;;;;;;9.18;8.18;;;;;;;;;;6323411;28;20040;-66
2022/06/02 10:38:29;;;;;;;337.15;300.40;;;;;;;;;;6318214;28;20036;-68
2022/06/02 10:41:51;;;;;;;67.00;48.67;;;;;;;;;;6322851;28;20052;-68
2022/06/02 10:45:20;;;;;;;78.30;60.95;;;;;;;;;;6324484;28;20043;-68
2022/06/02 10:48:57;;;;;;;39.97;30.02;;;;;;;;;;6326009;28;20048;-68
2022/06/02 10:52:47;;;;;;;10.48;9.10;;;;;;;;;;6302358;28;20052;-68
2022/06/02 10:56:11;;;;;;;8.50;7.28;;;;;;;;;;6323003;28;20043;-67
2022/06/02 10:59:40;;;;;;;8.05;7.25;;;;;;;;;;6315191;28;20039;-67
2022/06/02 11:03:23;;;;;;;8.75;6.63;;;;;;;;;;6324855;27;20052;-68
2022/06/02 11:07:03;;;;;;;9.10;8.20;;;;;;;;;;6325337;28;20184;-68
2022/06/02 11:10:30;;;;;;;9.90;7.78;;;;;;;;;;6292012;28;20043;-68
2022/06/02 11:14:12;;;;;;;8.13;7.32;;;;;;;;;;6323208;27;20082;-68
2022/06/02 11:17:36;;;;;;;7.28;6.57;;;;;;;;;;6310650;27;20106;-69
2022/06/02 11:21:25;;;;;;;7.38;6.65;;;;;;;;;;6320840;27;20051;-69
2022/06/02 11:25:08;;;;;;;9.27;7.93;;;;;;;;;;6278259;28;20052;-70
2022/06/02 11:28:42;;;;;;;7.65;6.95;;;;;;;;;;6278957;28;20289;-70
2022/06/02 11:32:04;;;;;;;7.82;5.97;;;;;;;;;;6279771;28;20087;-71
2022/06/02 11:35:19;;;;;;;8.25;7.25;;;;;;;;;;6280210;28;20045;-70
2022/06/02 11:38:32;;;;;;;8.82;7.68;;;;;;;;;;6277373;28;20041;-69
2022/06/02 11:41:41;;;;;;;8.38;7.32;;;;;;;;;;6276419;28;20052;-69
2022/06/02 11:44:51;;;;;;;7.93;7.03;;;;;;;;;;6277789;28;20102;-69
2022/06/02 11:48:08;;;;;;;10.05;9.05;;;;;;;;;;6281558;28;20040;-69
2022/06/02 11:51:54;;;;;;;7.07;6.47;;;;;;;;;;6281559;28;20065;-71
2022/06/02 11:55:20;;;;;;;12.75;8.27;;;;;;;;;;6276985;28;20063;-71
2022/06/02 11:58:45;;;;;;;7.18;5.70;;;;;;;;;;6297308;27;20052;-68
2022/06/02 12:02:13;;;;;;;6.80;6.13;;;;;;;;;;6316694;27;20047;-70
2022/06/02 12:05:45;;;;;;;6.78;5.25;;;;;;;;;;6326911;27;20048;-70
2022/06/02 12:09:15;;;;;;;7.60;6.97;;;;;;;;;;6329106;28;20068;-69
2022/06/02 12:12:50;;;;;;;6.30;5.70;;;;;;;;;;6292993;28;20048;-70
2022/06/02 12:16:18;;;;;;;5.63;4.90;;;;;;;;;;6274038;28;20091;-70
2022/06/02 12:19:52;;;;;;;6.57;5.25;;;;;;;;;;6275662;28;20267;-71
2022/06/02 12:23:14;;;;;;;5.47;4.97;;;;;;;;;;6291875;28;20072;-70
2022/06/02 12:26:22;;;;;;;5.70;5.20;;;;;;;;;;6297143;28;20135;-70
2022/06/02 12:29:36;;;;;;;6.60;5.10;;;;;;;;;;6296233;28;20061;-71
2022/06/02 12:32:59;;;;;;;5.60;5.10;;;;;;;;;;6290478;28;20056;-70
2022/06/02 12:36:27;;;;;;;8.07;6.78;;;;;;;;;;6294571;28;20056;-70
2022/06/02 12:40:03;;;;;;;6.75;5.18;;;;;;;;;;6290812;28;20134;-70
2022/06/02 12:43:39;;;;;;;10.38;5.63;;;;;;;;;;6294682;28;20282;-71
2022/06/02 12:47:01;;;;;;;6.22;4.57;;;;;;;;;;6297779;28;20293;-70
2022/06/02 12:50:35;;;;;;;6.75;5.63;;;;;;;;;;6205040;28;20053;-70
2022/06/02 12:54:22;;;;;;;5.30;4.80;;;;;;;;;;6122759;29;20063;-70
2022/06/02 12:58:05;;;;;;;5.15;4.65;;;;;;;;;;6123952;28;20047;-69
2022/06/02 13:01:17;;;;;;;6.43;4.38;;;;;;;;;;6098006;29;20055;-70
2022/06/02 13:04:43;;;;;;;5.57;5.00;;;;;;;;;;6122615;29;20227;-70
2022/06/02 13:08:28;;;;;;;6.60;4.97;;;;;;;;;;6119419;29;20070;-69
2022/06/02 13:11:57;;;;;;;5.53;4.57;;;;;;;;;;6121516;29;20054;-70
2022/06/02 13:15:28;;;;;;;5.47;4.50;;;;;;;;;;6123849;28;20054;-70
2022/06/02 13:18:56;;;;;;;5.80;5.30;;;;;;;;;;6122796;29;20291;-70
2022/06/02 13:22:39;;;;;;;7.38;5.43;;;;;;;;;;6125710;29;20248;-70
2022/06/02 13:26:07;;;;;;;8.77;4.97;;;;;;;;;;6105251;28;20047;-70
2022/06/02 13:29:36;;;;;;;8.38;5.70;;;;;;;;;;6327696;27;20044;-71
2022/06/02 13:33:07;;;;;;;7.25;6.20;;;;;;;;;;6305439;27;20081;-71
2022/06/02 13:36:20;;;;;;;6.65;5.15;;;;;;;;;;6320845;27;20342;-70
2022/06/02 13:39:41;;;;;;;6.30;4.57;;;;;;;;;;6319854;27;20059;-70
2022/06/02 13:43:14;;;;;;;6.47;5.18;;;;;;;;;;6325684;27;20119;-71
2022/06/02 13:46:42;;;;;;;6.55;5.57;;;;;;;;;;6315207;28;20088;-70
2022/06/02 13:50:17;;;;;;;5.32;4.90;;;;;;;;;;6319638;27;20052;-70
2022/06/02 13:53:39;;;;;;;5.13;4.70;;;;;;;;;;6316211;27;20056;-71
2022/06/02 14:00:18;;;;;;;8.45;5.40;;;;;;;;;;6322482;28;20047;-73
2022/06/02 14:03:42;;;;;;;6.15;5.28;;;;;;;;;;6299676;28;20056;-69
2022/06/02 14:06:47;;;;;;;6.43;5.78;;;;;;;;;;6295818;28;20323;-69
2022/06/02 14:09:57;;;;;;;7.95;5.60;;;;;;;;;;6297411;28;20339;-71
2022/06/02 14:13:19;;;;;;;9.30;5.20;;;;;;;;;;6308565;28;20113;-70
2022/06/02 14:16:21;;;;;;;;;;;;;;;;;;6323143;28;20045;-71
2022/06/02 14:19:50;;;;;;;8.38;4.63;;;;;;;;;;6318990;28;20065;-71
2022/06/02 14:23:05;;;;;;;5.20;4.70;;;;;;;;;;6323961;28;20052;-71
2022/06/02 14:26:16;;;;;;;9.50;4.75;;;;;;;;;;6322339;28;20048;-70
2022/06/02 14:29:32;;;;;;;7.38;5.03;;;;;;;;;;6321029;28;20132;-71
2022/06/02 14:32:41;;;;;;;4.93;4.43;;;;;;;;;;6321043;28;20044;-71
2022/06/02 14:35:48;;;;;;;7.05;5.10;;;;;;;;;;6323506;28;20059;-71
2022/06/02 14:38:58;;;;;;;6.20;4.15;;;;;;;;;;6325116;28;20159;-71
2022/06/02 14:43:03;;;;;;;7.22;4.85;;;;;;;;;;6319475;28;20342;-70
2022/06/02 14:46:04;;;;;;;5.63;5.03;;;;;;;;;;6316811;28;20067;-71
2022/06/02 14:49:21;;;;;;;7.53;5.25;;;;;;;;;;6317773;28;20047;-71
2022/06/02 14:52:48;;;;;;;6.07;4.75;;;;;;;;;;6319236;28;20332;-72
2022/06/02 14:55:58;;;;;;;5.18;4.68;;;;;;;;;;6311683;28;20097;-71
2022/06/02 14:59:16;;;;;;;7.35;4.50;;;;;;;;;;6324906;28;20243;-70
2022/06/02 15:02:49;;;;;;;8.05;4.88;;;;;;;;;;6322345;28;20050;-70
2022/06/02 15:05:54;;;;;;;6.88;4.75;;;;;;;;;;6322257;28;20059;-70
2022/06/02 15:09:36;;;;;;;6.40;5.38;;;;;;;;;;6322234;28;20151;-71
2022/06/02 15:13:14;;;;;;;7.65;5.47;;;;;;;;;;6227751;28;20050;-71
2022/06/02 15:16:29;;;;;;;7.55;4.40;;;;;;;;;;6223470;28;20062;-72
2022/06/02 15:19:50;;;;;;;7.88;4.65;;;;;;;;;;6222484;28;20124;-68
2022/06/02 15:23:32;;;;;;;5.45;4.25;;;;;;;;;;6221538;28;20189;-69
2022/06/02 15:27:12;;;;;;;6.63;4.55;;;;;;;;;;6223129;28;20052;-68
2022/06/02 15:30:24;;;;;;;17.83;15.48;;;;;;;;;;6206453;28;20045;-70
2022/06/02 15:33:50;;;;;;;5.40;4.90;;;;;;;;;;6230845;28;20369;-68
2022/06/02 15:37:28;;;;;;;6.68;4.40;;;;;;;;;;6219737;28;20054;-68
2022/06/02 15:41:11;;;;;;;6.90;4.80;;;;;;;;;;6221412;28;20065;-69
2022/06/02 15:44:48;;;;;;;7.65;4.78;;;;;;;;;;6305989;28;20100;-71
2022/06/02 15:48:19;;;;;;;5.72;5.13;;;;;;;;;;6323551;28;20355;-70
2022/06/02 15:51:39;;;;;;;7.68;4.80;;;;;;;;;;6324472;28;20060;-70
2022/06/02 15:55:07;;;;;;;5.13;4.63;;;;;;;;;;6328551;28;20270;-70
2022/06/02 15:58:35;;;;;;;8.40;4.88;;;;;;;;;;6325326;28;20090;-70
2022/06/02 16:02:22;;;;;;;6.40;4.65;;;;;;;;;;6324616;28;20044;-70
2022/06/02 16:05:46;;;;;;;7.15;4.93;;;;;;;;;;6321971;27;20243;-71
2022/06/02 16:13:06;;;;;;;4.88;4.47;;;;;;;;;;6325929;27;20039;-70
2022/06/02 16:16:36;;;;;;;5.03;4.50;;;;;;;;;;6320547;28;20040;-71
2022/06/02 16:20:17;;;;;;;6.65;4.45;;;;;;;;;;6323347;28;20044;-70
2022/06/02 16:23:52;;;;;;;5.35;4.70;;;;;;;;;;6324607;28;20059;-70
2022/06/02 16:27:09;;;;;;;5.82;4.47;;;;;;;;;;6303893;28;20430;-71
2022/06/02 16:30:14;;;;;;;6.10;4.18;;;;;;;;;;6322018;27;20054;-71
2022/06/02 16:33:27;;;;;;;5.80;4.60;;;;;;;;;;6327491;28;20066;-71
2022/06/02 16:36:40;;;;;;;6.90;4.15;;;;;;;;;;6323143;28;20048;-70
2022/06/02 16:40:10;;;;;;;7.72;5.07;;;;;;;;;;6323012;28;20725;-70
2022/06/02 16:43:28;;;;;;;5.85;4.18;;;;;;;;;;6323343;28;20086;-71
2022/06/02 16:46:43;;;;;;;4.75;3.95;;;;;;;;;;6322107;28;20040;-69
2022/06/02 16:49:58;;;;;;;12.00;5.20;;;;;;;;;;6319824;28;20105;-71
2022/06/02 16:56:45;;;;;;;4.90;4.40;;;;;;;;;;6323476;28;20261;-70
2022/06/02 16:59:57;;;;;;;7.28;4.93;;;;;;;;;;6324136;28;20056;-70
2022/06/02 17:03:12;;;;;;;5.28;4.00;;;;;;;;;;6323581;28;20043;-71
2022/06/02 17:06:25;;;;;;;9.30;4.22;;;;;;;;;;6322247;28;20040;-70
2022/06/02 17:09:44;;;;;;;7.80;4.47;;;;;;;;;;6322988;28;20044;-69
2022/06/02 17:12:48;;;;;;;7.78;4.25;;;;;;;;;;6324754;28;20052;-70
2022/06/02 17:16:17;;;;;;;4.47;4.07;;;;;;;;;;6322616;28;20059;-71
2022/06/02 17:19:44;;;;;;;6.45;4.13;;;;;;;;;;6324020;28;20045;-70
2022/06/02 17:23:08;;;;;;;5.15;4.65;;;;;;;;;;6318977;28;20123;-69
2022/06/02 17:26:34;;;;;;;5.22;4.30;;;;;;;;;;6322924;28;20107;-70
2022/06/02 17:29:44;;;;;;;5.97;4.40;;;;;;;;;;6321936;28;20050;-71
2022/06/02 17:33:03;;;;;;;5.50;4.65;;;;;;;;;;6321483;28;20128;-71
2022/06/02 17:36:33;;;;;;;5.53;4.38;;;;;;;;;;6321447;28;20108;-71
2022/06/02 17:39:44;;;;;;;6.40;4.75;;;;;;;;;;6321063;28;20153;-71
2022/06/02 17:43:00;;;;;;;6.07;3.80;;;;;;;;;;6321767;28;20049;-71
2022/06/02 17:46:16;;;;;;;9.95;4.95;;;;;;;;;;6321009;28;20063;-70
2022/06/02 17:49:51;;;;;;;11.70;4.50;;;;;;;;;;6321737;28;20059;-70
2022/06/02 17:53:01;;;;;;;5.32;4.53;;;;;;;;;;6248270;28;20099;-71
2022/06/02 17:56:30;;;;;;;8.27;4.35;;;;;;;;;;6247633;28;20263;-71
2022/06/02 17:59:57;;;;;;;5.45;4.50;;;;;;;;;;6249413;28;20224;-71
2022/06/02 18:03:02;;;;;;;6.80;4.95;;;;;;;;;;6244979;28;20053;-72
2022/06/02 18:06:13;;;;;;;5.93;5.30;;;;;;;;;;6246674;28;20053;-71
2022/06/02 18:09:28;;;;;;;10.23;5.30;;;;;;;;;;6248432;28;20129;-70
2022/06/02 18:12:48;;;;;;;5.80;4.63;;;;;;;;;;6247078;28;20075;-69
2022/06/02 18:16:02;;;;;;;5.70;4.70;;;;;;;;;;6246703;28;20064;-70
2022/06/02 18:19:27;;;;;;;5.55;4.60;;;;;;;;;;6246750;28;20058;-70
2022/06/02 18:23:03;;;;;;;6.07;4.80;;;;;;;;;;6245327;28;20092;-67
2022/06/02 18:26:10;;;;;;;5.00;4.50;;;;;;;;;;6246834;28;20065;-67
2022/06/02 18:29:42;;;;;;;7.10;5.00;;;;;;;;;;6303780;28;20109;-67
2022/06/02 18:32:53;;;;;;;7.25;4.80;;;;;;;;;;6323151;28;20115;-70
2022/06/02 18:36:10;;;;;;;5.53;4.60;;;;;;;;;;6323636;28;20060;-70
2022/06/02 18:39:35;;;;;;;6.70;4.97;;;;;;;;;;6323964;28;20052;-70
2022/06/02 18:42:53;;;;;;;6.95;4.88;;;;;;;;;;6313050;28;20048;-70
2022/06/02 18:46:17;;;;;;;4.70;4.30;;;;;;;;;;6325774;28;20059;-70
2022/06/02 18:49:37;;;;;;;5.57;4.40;;;;;;;;;;6323087;28;20090;-70
2022/06/02 18:52:51;;;;;;;6.05;4.70;;;;;;;;;;6327892;28;20097;-70
2022/06/02 18:56:14;;;;;;;7.95;4.70;;;;;;;;;;6327125;28;20044;-69
2022/06/02 19:00:03;;;;;;;7.47;4.80;;;;;;;;;;6325979;28;20086;-68
2022/06/02 19:03:34;;;;;;;5.93;4.50;;;;;;;;;;6326808;28;20044;-68
2022/06/02 19:14:27;;;;;;;7.40;4.35;;;;;;;;;;6325698;27;20048;-68
2022/06/02 19:17:35;;;;;;;6.30;5.20;;;;;;;;;;6326727;28;20045;-69
2022/06/02 19:20:55;;;;;;;5.85;5.20;;;;;;;;;;6325342;28;20218;-70
2022/06/02 19:24:28;;;;;;;6.25;4.40;;;;;;;;;;6328935;28;20048;-69
2022/06/02 19:27:48;;;;;;;7.57;4.67;;;;;;;;;;6321976;28;20093;-70
2022/06/02 19:31:04;;;;;;;5.13;4.28;;;;;;;;;;6324473;28;20454;-72
2022/06/02 19:34:11;;;;;;;7.68;4.80;;;;;;;;;;6323912;27;20292;-70
2022/06/02 19:37:20;;;;;;;6.65;4.97;;;;;;;;;;6323569;28;20639;-70
2022/06/02 19:40:26;;;;;;;12.70;5.85;;;;;;;;;;6325136;28;20339;-70
2022/06/02 19:43:34;;;;;;;9.75;5.05;;;;;;;;;;6328556;28;20047;-71
2022/06/02 19:46:43;;;;;;;10.38;6.28;;;;;;;;;;6328203;28;20047;-70
2022/06/02 19:49:53;;;;;;;7.18;5.82;;;;;;;;;;6322791;28;20063;-70
2022/06/02 19:53:00;;;;;;;13.27;5.63;;;;;;;;;;6323342;28;20115;-70
2022/06/02 19:56:07;;;;;;;5.93;5.25;;;;;;;;;;6324310;27;20105;-69
2022/06/02 19:59:12;;;;;;;11.50;5.35;;;;;;;;;;6321893;28;20314;-70
2022/06/02 20:02:21;;;;;;;9.93;6.40;;;;;;;;;;6325585;28;20112;-68
2022/06/02 20:05:25;;;;;;;7.30;6.05;;;;;;;;;;6326385;28;20052;-70
2022/06/02 20:08:33;;;;;;;10.90;6.20;;;;;;;;;;6328330;28;20127;-70
2022/06/02 20:11:36;;;;;;;8.13;6.18;;;;;;;;;;6323410;28;20119;-71